Terminal Aerodrome Forecast
Issued by NWS

Home | Current Version | Previous Version | Text Only | Print | Product List | Glossary On
Versions: 1 2 3 4 5 6 7 8 9 10 11 12 13 14 15 16 17 18 19 20 21 22 23 24 25 26 27 28
925
FTUS44 KFWD 220900 AAA
TAFDAL
TAF AMD
KDAL 220900Z 2209/2306 25014KT P6SM SCT100
     FM221400 30020KT P6SM BKN025
     FM221700 33023G33KT P6SM SCT025
     FM230100 32015KT P6SM SKC=

USA.gov is the U.S. government's official web portal to all federal, state and local government web resources and services.